Time;durP1;ratioP1;P1;durP2;ratioP2;P2;SDS_P1;SDS_P2;PMS_P1;PMS_P2;Temp;Humidity;BMP_temperature;BMP_pressure;BME280_temperature;BME280_humidity;BME280_pressure;Samples;Min_cycle;Max_cycle;Signal;HPM_P1;HPM_P2
2023/04/18 00:00:01;;;;;;;3.20;1.90;;;7.80;99.90;;;;;;5072815;28;21009;-78
2023/04/18 00:02:28;;;;;;;3.93;1.93;;;7.70;99.90;;;;;;5073294;28;20495;-77
2023/04/18 00:04:55;;;;;;;2.40;1.80;;;7.70;99.90;;;;;;5073453;28;20496;-78
2023/04/18 00:07:21;;;;;;;1.60;1.50;;;7.70;99.90;;;;;;5073357;28;20500;-78
2023/04/18 00:09:49;;;;;;;3.30;2.23;;;7.70;99.90;;;;;;5073224;28;20464;-78
2023/04/18 00:12:17;;;;;;;2.90;1.27;;;7.70;99.90;;;;;;5073327;28;20464;-77
2023/04/18 00:14:44;;;;;;;4.30;3.13;;;7.70;99.90;;;;;;5072961;28;20894;-77
2023/04/18 00:17:12;;;;;;;2.67;2.27;;;7.70;99.90;;;;;;5073285;28;20445;-78
2023/04/18 00:19:42;;;;;;;5.40;2.23;;;7.70;99.90;;;;;;5073105;28;20448;-77
2023/04/18 00:22:08;;;;;;;5.30;2.43;;;7.70;99.90;;;;;;5073611;28;20836;-77
2023/04/18 00:24:35;;;;;;;2.53;1.77;;;7.80;99.90;;;;;;5073195;28;20450;-78
2023/04/18 00:27:03;;;;;;;6.80;3.50;;;7.70;99.90;;;;;;5073224;28;20453;-78
2023/04/18 00:29:31;;;;;;;10.20;2.43;;;7.70;99.90;;;;;;5072799;28;20954;-77
2023/04/18 00:31:58;;;;;;;3.60;1.80;;;7.70;99.90;;;;;;5073117;28;20485;-77
2023/04/18 00:34:24;;;;;;;2.10;1.03;;;7.70;99.90;;;;;;5072838;28;20453;-78
2023/04/18 00:36:51;;;;;;;3.73;2.17;;;7.70;99.90;;;;;;5073100;28;20457;-78
2023/04/18 00:39:18;;;;;;;4.07;1.30;;;7.80;99.90;;;;;;5073039;28;20452;-78
2023/04/18 00:41:44;;;;;;;4.70;2.60;;;7.80;99.90;;;;;;5072589;28;20490;-77
2023/04/18 00:44:13;;;;;;;6.03;2.60;;;7.80;99.90;;;;;;5072708;28;20493;-78
2023/04/18 00:46:39;;;;;;;2.83;1.27;;;7.70;99.90;;;;;;5072852;28;20461;-77
2023/04/18 00:49:06;;;;;;;4.67;1.77;;;7.70;99.90;;;;;;5072708;28;20938;-78
2023/04/18 00:51:35;;;;;;;3.57;1.93;;;7.70;99.90;;;;;;5072840;28;20564;-77
2023/04/18 00:54:02;;;;;;;5.70;1.43;;;7.70;99.90;;;;;;5072605;28;20813;-78
2023/04/18 00:56:29;;;;;;;5.23;1.80;;;7.70;99.90;;;;;;5072963;28;20492;-77
2023/04/18 00:58:57;;;;;;;3.13;2.30;;;7.70;99.90;;;;;;5072898;28;20445;-77
2023/04/18 01:01:25;;;;;;;6.60;2.10;;;7.80;99.90;;;;;;5075716;28;20504;-78
2023/04/18 01:03:51;;;;;;;2.97;2.67;;;7.70;99.90;;;;;;5076597;28;20449;-78
2023/04/18 01:06:18;;;;;;;6.50;2.23;;;7.80;99.90;;;;;;5076560;28;20532;-78
2023/04/18 01:08:46;;;;;;;2.70;1.67;;;7.90;99.90;;;;;;5076223;28;20452;-77
2023/04/18 01:11:12;;;;;;;2.80;1.93;;;7.80;99.90;;;;;;5076400;28;20465;-78
2023/04/18 01:13:39;;;;;;;7.97;2.70;;;7.80;99.90;;;;;;5076098;28;20949;-77
2023/04/18 01:16:06;;;;;;;2.10;1.90;;;7.80;99.90;;;;;;5076502;28;20453;-77
2023/04/18 01:18:35;;;;;;;8.70;2.03;;;7.80;99.90;;;;;;5076342;28;20461;-77
2023/04/18 01:21:03;;;;;;;4.80;1.83;;;7.80;99.90;;;;;;5076258;28;20488;-77
2023/04/18 01:23:30;;;;;;;5.77;1.57;;;7.80;99.90;;;;;;5075792;28;20485;-78
2023/04/18 01:25:59;;;;;;;4.30;2.20;;;7.80;99.90;;;;;;5075920;28;20960;-78
2023/04/18 01:28:26;;;;;;;2.33;2.13;;;7.70;99.90;;;;;;5076126;28;20495;-78
2023/04/18 01:30:53;;;;;;;7.07;2.53;;;7.70;99.90;;;;;;5075970;28;20804;-78
2023/04/18 01:33:20;;;;;;;2.40;1.47;;;7.70;99.90;;;;;;5076064;28;20634;-78
2023/04/18 01:35:47;;;;;;;3.43;2.20;;;7.70;99.90;;;;;;5076025;28;20450;-77
2023/04/18 01:38:13;;;;;;;4.17;1.73;;;7.70;99.90;;;;;;5075660;28;20506;-78
2023/04/18 01:40:40;;;;;;;2.67;1.60;;;7.70;99.90;;;;;;5075640;28;20465;-78
2023/04/18 01:43:08;;;;;;;8.33;3.43;;;7.70;99.90;;;;;;5075830;28;20489;-77
2023/04/18 01:45:35;;;;;;;6.20;2.70;;;7.60;99.90;;;;;;5075869;28;20536;-78
2023/04/18 01:48:01;;;;;;;4.30;1.83;;;7.60;99.90;;;;;;5075497;28;20933;-78
2023/04/18 01:50:28;;;;;;;2.00;1.50;;;7.70;99.90;;;;;;5075641;28;20469;-77
2023/04/18 01:52:55;;;;;;;2.80;2.00;;;7.70;99.90;;;;;;5075693;28;20452;-78
2023/04/18 01:55:22;;;;;;;2.20;1.80;;;7.70;99.90;;;;;;5075669;28;20449;-78
2023/04/18 01:57:49;;;;;;;2.10;1.90;;;7.70;99.90;;;;;;5076057;28;20460;-78
2023/04/18 02:00:18;;;;;;;2.60;1.20;;;7.70;99.90;;;;;;5075036;28;20903;-78
2023/04/18 02:02:45;;;;;;;3.90;2.70;;;7.80;99.90;;;;;;5075452;28;20485;-78
2023/04/18 02:05:12;;;;;;;3.53;1.90;;;7.80;99.90;;;;;;5075462;28;20476;-78
2023/04/18 02:07:39;;;;;;;6.63;1.90;;;7.80;99.90;;;;;;5075443;28;20476;-78
2023/04/18 02:10:07;;;;;;;6.00;2.20;;;7.70;99.90;;;;;;5075037;28;20552;-78
2023/04/18 02:12:34;;;;;;;7.00;2.53;;;7.70;99.90;;;;;;5075242;28;20445;-78
2023/04/18 02:15:01;;;;;;;4.70;2.30;;;7.70;99.90;;;;;;5075000;28;20945;-78
2023/04/18 02:17:29;;;;;;;12.10;2.90;;;7.70;99.90;;;;;;5074988;28;20852;-78
2023/04/18 02:19:56;;;;;;;1.80;1.30;;;7.70;99.90;;;;;;5075147;28;20495;-78
2023/04/18 02:22:22;;;;;;;2.70;1.80;;;7.70;99.90;;;;;;5075073;28;20482;-78
2023/04/18 02:24:49;;;;;;;9.50;3.53;;;7.70;99.90;;;;;;5075109;28;20446;-78
2023/04/18 02:27:16;;;;;;;5.00;1.93;;;7.70;99.90;;;;;;5075039;28;20449;-78
2023/04/18 02:29:43;;;;;;;4.07;2.33;;;7.60;99.90;;;;;;5075025;28;20503;-78
2023/04/18 02:32:09;;;;;;;4.83;2.10;;;7.60;99.90;;;;;;5074916;28;20445;-78
2023/04/18 02:34:38;;;;;;;3.80;1.80;;;7.60;99.90;;;;;;5074879;28;20445;-78
2023/04/18 02:37:05;;;;;;;4.53;2.23;;;7.70;99.90;;;;;;5074544;28;20933;-77
2023/04/18 02:39:32;;;;;;;5.80;1.17;;;7.70;99.90;;;;;;5074468;28;20446;-78
2023/04/18 02:41:58;;;;;;;7.00;3.40;;;7.70;99.90;;;;;;5074679;28;20488;-77
2023/04/18 02:44:25;;;;;;;6.03;1.80;;;7.60;99.90;;;;;;5074737;28;20459;-78
2023/04/18 02:46:52;;;;;;;2.70;1.70;;;7.70;99.90;;;;;;5074684;28;20449;-78
2023/04/18 02:49:18;;;;;;;4.70;2.07;;;7.70;99.90;;;;;;5074618;28;20460;-78
2023/04/18 02:51:47;;;;;;;1.60;1.50;;;7.70;99.90;;;;;;5074773;28;20526;-78
2023/04/18 02:54:13;;;;;;;2.43;1.83;;;7.70;99.90;;;;;;5074490;28;20450;-78
2023/04/18 02:56:41;;;;;;;4.87;2.43;;;7.70;99.90;;;;;;5074486;28;20453;-78
2023/04/18 02:59:08;;;;;;;4.03;2.00;;;7.70;99.90;;;;;;5074138;28;20454;-78
2023/04/18 03:01:35;;;;;;;3.33;2.50;;;7.70;99.90;;;;;;5073811;28;20489;-78
2023/04/18 03:04:02;;;;;;;7.00;2.60;;;7.70;99.90;;;;;;5074234;28;20489;-78
2023/04/18 03:06:29;;;;;;;5.33;2.43;;;7.70;99.90;;;;;;5074273;28;20458;-78
2023/04/18 03:08:57;;;;;;;2.60;1.50;;;7.70;99.90;;;;;;5073926;28;20945;-78
2023/04/18 03:11:23;;;;;;;5.57;2.00;;;7.70;99.90;;;;;;5074114;28;20473;-78
2023/04/18 03:13:50;;;;;;;10.73;2.90;;;7.70;99.90;;;;;;5074126;28;20448;-78
2023/04/18 03:16:17;;;;;;;2.60;2.43;;;7.70;99.90;;;;;;5074130;28;20468;-78
2023/04/18 03:18:44;;;;;;;4.80;1.83;;;7.70;99.90;;;;;;5073723;28;20952;-78
2023/04/18 03:21:11;;;;;;;5.10;2.30;;;7.60;99.90;;;;;;5073881;28;20458;-78
2023/04/18 03:23:37;;;;;;;2.73;1.50;;;7.60;99.90;;;;;;5073086;28;20513;-78
2023/04/18 03:26:06;;;;;;;4.17;2.50;;;7.50;99.90;;;;;;5073858;28;20454;-78
2023/04/18 03:28:33;;;;;;;2.43;1.10;;;7.50;99.90;;;;;;5073847;28;20457;-78
2023/04/18 03:31:00;;;;;;;3.70;1.83;;;7.50;99.90;;;;;;5073450;28;21015;-78
2023/04/18 03:33:27;;;;;;;3.10;1.90;;;7.40;99.90;;;;;;5073467;28;20945;-78
2023/04/18 03:35:54;;;;;;;2.30;1.80;;;7.40;99.90;;;;;;5073451;28;20540;-78
2023/04/18 03:38:21;;;;;;;5.13;2.30;;;7.40;99.90;;;;;;5073423;28;20452;-78
2023/04/18 03:40:47;;;;;;;3.63;2.00;;;7.40;99.90;;;;;;5073613;28;20527;-78
2023/04/18 03:43:15;;;;;;;6.53;1.53;;;7.40;99.90;;;;;;5073267;28;21036;-78
2023/04/18 03:45:43;;;;;;;3.87;1.60;;;7.30;99.90;;;;;;5073627;28;20445;-78
2023/04/18 03:48:09;;;;;;;1.40;1.20;;;7.30;99.90;;;;;;5073625;28;20433;-78
2023/04/18 03:50:36;;;;;;;2.47;2.27;;;7.30;99.90;;;;;;5073492;28;20477;-77
2023/04/18 03:53:03;;;;;;;4.37;1.27;;;7.30;99.90;;;;;;5073526;28;20516;-78
2023/04/18 03:55:29;;;;;;;1.10;1.10;;;7.30;99.90;;;;;;5073481;28;20454;-78
2023/04/18 03:57:57;;;;;;;6.57;2.47;;;7.20;99.90;;;;;;5073430;28;20454;-78
2023/04/18 04:00:26;;;;;;;4.70;2.37;;;7.30;99.90;;;;;;5072847;28;20492;-78
2023/04/18 04:02:53;;;;;;;3.03;1.13;;;7.30;99.90;;;;;;5073044;28;21008;-78
2023/04/18 04:05:19;;;;;;;6.70;2.47;;;7.20;99.90;;;;;;5073079;28;20450;-78
2023/04/18 04:07:46;;;;;;;2.13;1.27;;;7.20;99.90;;;;;;5073244;28;20448;-78
2023/04/18 04:10:13;;;;;;;2.00;1.50;;;7.20;99.90;;;;;;5073314;28;20486;-78
2023/04/18 04:12:39;;;;;;;4.20;1.60;;;7.20;99.90;;;;;;5073279;28;20794;-78
2023/04/18 04:15:07;;;;;;;3.43;1.20;;;7.20;99.90;;;;;;5073290;28;20450;-78
2023/04/18 04:17:35;;;;;;;3.60;3.30;;;7.20;99.90;;;;;;5073297;28;20457;-78
2023/04/18 04:20:02;;;;;;;2.63;1.83;;;7.20;99.90;;;;;;5073209;28;20502;-78
2023/04/18 04:22:29;;;;;;;3.67;1.53;;;7.20;99.90;;;;;;5072827;28;21015;-78
2023/04/18 04:24:57;;;;;;;3.60;2.07;;;7.20;99.90;;;;;;5073172;28;20445;-78
2023/04/18 04:27:25;;;;;;;4.00;1.60;;;7.20;99.90;;;;;;5073187;28;20446;-77
2023/04/18 04:29:52;;;;;;;5.20;1.73;;;7.20;99.90;;;;;;5073111;28;20508;-77
2023/04/18 04:32:20;;;;;;;1.53;1.40;;;7.20;99.90;;;;;;5073170;28;20457;-78
2023/04/18 04:34:49;;;;;;;5.17;1.73;;;7.20;99.90;;;;;;5075731;28;20456;-78
2023/04/18 04:37:17;;;;;;;2.80;1.33;;;7.20;99.90;;;;;;5077179;28;20449;-78
2023/04/18 04:39:44;;;;;;;2.53;2.43;;;7.20;99.90;;;;;;5076989;28;20484;-78
2023/04/18 04:42:12;;;;;;;2.30;1.30;;;7.10;99.90;;;;;;5077702;28;20874;-78
2023/04/18 04:44:40;;;;;;;1.70;1.60;;;7.20;99.90;;;;;;5077039;28;20495;-78
2023/04/18 04:47:07;;;;;;;3.90;1.90;;;7.20;99.90;;;;;;5076962;28;20497;-78
2023/04/18 04:49:34;;;;;;;4.90;1.97;;;7.20;99.90;;;;;;5076507;28;20948;-77
2023/04/18 04:52:02;;;;;;;2.03;1.07;;;7.20;99.90;;;;;;5076878;28;20445;-78
2023/04/18 04:54:29;;;;;;;3.77;1.20;;;7.20;99.90;;;;;;5076513;28;20446;-78
2023/04/18 04:56:56;;;;;;;3.97;3.13;;;7.20;99.90;;;;;;5076448;28;20933;-78
2023/04/18 04:59:23;;;;;;;4.43;1.67;;;7.20;99.90;;;;;;5076548;28;20503;-78
2023/04/18 05:01:49;;;;;;;5.53;2.40;;;7.20;99.90;;;;;;5076382;28;20456;-77
2023/04/18 05:04:16;;;;;;;1.33;1.23;;;7.10;99.90;;;;;;5076219;28;20477;-77
2023/04/18 05:06:43;;;;;;;3.73;1.00;;;7.10;99.90;;;;;;5076579;28;20441;-78
2023/04/18 05:09:11;;;;;;;2.97;2.00;;;7.10;99.90;;;;;;5076182;28;20457;-78
2023/04/18 05:11:38;;;;;;;9.63;2.90;;;7.00;99.90;;;;;;5076288;28;20857;-78
2023/04/18 05:14:05;;;;;;;5.73;2.03;;;7.00;99.90;;;;;;5076542;28;20453;-78
2023/04/18 05:16:32;;;;;;;5.33;2.77;;;7.00;99.90;;;;;;5076480;28;20445;-78
2023/04/18 05:18:58;;;;;;;5.07;2.20;;;7.00;99.90;;;;;;5076403;28;20456;-77
2023/04/18 05:21:27;;;;;;;2.30;1.47;;;7.00;99.90;;;;;;5076272;28;20465;-77
2023/04/18 05:23:54;;;;;;;2.60;1.67;;;7.00;99.90;;;;;;5075877;28;21024;-78
2023/04/18 05:26:23;;;;;;;3.97;3.27;;;7.00;99.90;;;;;;5075911;28;20948;-78
2023/04/18 05:28:50;;;;;;;3.90;2.10;;;7.10;99.90;;;;;;5076974;28;20452;-78
2023/04/18 05:31:17;;;;;;;4.70;1.50;;;7.00;99.90;;;;;;5076095;28;20465;-78
2023/04/18 05:33:43;;;;;;;9.57;2.03;;;7.10;99.90;;;;;;5076137;28;20441;-78
2023/04/18 05:36:10;;;;;;;2.40;2.03;;;7.10;99.90;;;;;;5076036;28;20479;-77
2023/04/18 05:38:37;;;;;;;3.07;2.10;;;7.10;99.90;;;;;;5075974;28;20459;-77
2023/04/18 05:41:04;;;;;;;2.43;1.50;;;7.10;99.90;;;;;;5075898;28;20837;-77
2023/04/18 05:43:32;;;;;;;2.73;1.73;;;7.20;99.90;;;;;;5075812;28;20484;-78
2023/04/18 05:45:58;;;;;;;3.27;1.57;;;7.20;99.90;;;;;;5075022;28;20460;-78
2023/04/18 05:48:25;;;;;;;1.70;1.53;;;7.20;99.90;;;;;;5075837;28;20457;-78
2023/04/18 05:50:52;;;;;;;5.33;4.23;;;7.10;99.90;;;;;;5075439;28;20456;-77
2023/04/18 05:53:19;;;;;;;1.43;1.33;;;7.10;99.90;;;;;;5075436;28;20979;-77
2023/04/18 05:55:47;;;;;;;5.40;1.83;;;7.20;99.90;;;;;;5075643;28;20453;-77
2023/04/18 05:58:14;;;;;;;5.33;2.00;;;7.20;99.90;;;;;;5075521;28;20445;-78
2023/04/18 06:00:43;;;;;;;4.17;2.03;;;7.20;99.90;;;;;;5075033;28;20489;-77
2023/04/18 06:03:10;;;;;;;1.27;1.07;;;7.20;99.90;;;;;;5075421;28;20496;-78
2023/04/18 06:05:37;;;;;;;1.63;1.00;;;7.30;99.90;;;;;;5075185;28;20941;-77
2023/04/18 06:08:03;;;;;;;3.83;2.20;;;7.30;99.90;;;;;;5075514;28;20445;-77
2023/04/18 06:10:30;;;;;;;3.47;1.60;;;7.30;99.90;;;;;;5075252;28;20470;-77
2023/04/18 06:12:57;;;;;;;4.37;2.20;;;7.40;99.90;;;;;;5075044;28;20460;-77
2023/04/18 06:15:23;;;;;;;2.83;1.53;;;7.50;99.90;;;;;;5075090;28;20442;-77
2023/04/18 06:17:52;;;;;;;1.50;1.07;;;7.50;99.90;;;;;;5075266;28;20445;-77
2023/04/18 06:20:18;;;;;;;3.23;1.50;;;7.60;99.90;;;;;;5074877;28;20449;-78
2023/04/18 06:22:45;;;;;;;5.90;2.30;;;7.60;99.90;;;;;;5075082;28;20442;-78
2023/04/18 06:25:12;;;;;;;5.37;2.70;;;7.60;99.90;;;;;;5075101;28;20520;-77
2023/04/18 06:27:38;;;;;;;4.93;2.20;;;7.60;99.90;;;;;;5075073;28;20468;-78
2023/04/18 06:30:06;;;;;;;2.20;1.30;;;7.50;99.90;;;;;;5075023;28;20465;-77
2023/04/18 06:32:33;;;;;;;5.40;3.07;;;7.40;99.90;;;;;;5074941;28;20446;-78
2023/04/18 06:35:02;;;;;;;2.20;1.73;;;7.40;99.90;;;;;;5074887;28;20457;-78
2023/04/18 06:37:29;;;;;;;1.60;1.50;;;7.40;99.90;;;;;;5074856;28;20445;-77
2023/04/18 06:39:55;;;;;;;4.73;2.70;;;7.40;99.90;;;;;;5074709;28;20481;-78
2023/04/18 06:42:22;;;;;;;2.40;1.27;;;7.30;99.90;;;;;;5074498;28;20956;-77
2023/04/18 06:44:49;;;;;;;2.70;2.47;;;7.30;99.90;;;;;;5074635;28;20485;-78
2023/04/18 06:47:16;;;;;;;5.30;2.40;;;7.20;99.90;;;;;;5074371;28;20801;-78
2023/04/18 06:49:42;;;;;;;2.00;1.50;;;7.30;99.90;;;;;;5074553;28;20453;-78
2023/04/18 06:52:11;;;;;;;4.77;2.53;;;7.30;99.90;;;;;;5074396;28;20925;-77
2023/04/18 06:54:37;;;;;;;1.40;1.30;;;7.40;99.90;;;;;;5074522;28;20448;-77
2023/04/18 06:57:04;;;;;;;5.93;2.57;;;7.40;99.90;;;;;;5074183;28;20449;-78
2023/04/18 06:59:31;;;;;;;7.57;3.03;;;7.40;99.90;;;;;;5073848;28;20863;-78
2023/04/18 07:01:58;;;;;;;3.23;1.17;;;7.50;99.90;;;;;;5074418;28;20444;-77
2023/04/18 07:04:25;;;;;;;6.07;3.40;;;7.50;99.90;;;;;;5074244;28;20503;-78
2023/04/18 07:06:52;;;;;;;6.10;2.60;;;7.60;99.90;;;;;;5074318;28;20457;-78
2023/04/18 07:09:21;;;;;;;5.37;2.90;;;7.60;99.90;;;;;;5074207;28;20495;-78
2023/04/18 07:11:49;;;;;;;5.53;2.10;;;7.70;99.90;;;;;;5073852;28;20469;-78
2023/04/18 07:14:18;;;;;;;3.80;2.10;;;7.70;99.90;;;;;;5074155;28;20442;-78
2023/04/18 07:16:45;;;;;;;6.83;2.10;;;7.70;99.90;;;;;;5074140;28;20429;-78
2023/04/18 07:19:12;;;;;;;1.90;1.33;;;7.80;99.90;;;;;;5074019;28;20445;-78
2023/04/18 07:21:41;;;;;;;4.40;2.13;;;7.80;99.90;;;;;;5073961;28;20468;-78
2023/04/18 07:24:08;;;;;;;6.57;3.80;;;7.90;99.90;;;;;;5073829;28;20521;-78
2023/04/18 07:26:36;;;;;;;7.63;2.70;;;7.90;99.90;;;;;;5073967;28;20430;-77
2023/04/18 07:29:03;;;;;;;3.80;1.87;;;7.90;99.90;;;;;;5073875;28;20453;-77
2023/04/18 07:31:30;;;;;;;2.97;1.60;;;7.90;99.90;;;;;;5073756;28;20496;-77
2023/04/18 07:33:57;;;;;;;3.07;2.20;;;7.90;99.90;;;;;;5073780;28;20453;-77
2023/04/18 07:36:24;;;;;;;4.20;1.80;;;8.00;99.90;;;;;;5073498;28;20452;-77
2023/04/18 07:38:51;;;;;;;4.73;2.50;;;8.00;99.90;;;;;;5073758;28;20472;-77
2023/04/18 07:41:18;;;;;;;5.00;2.67;;;7.90;99.90;;;;;;5073685;28;20472;-78
2023/04/18 07:43:46;;;;;;;6.03;2.93;;;7.90;99.90;;;;;;5073616;28;20485;-77
2023/04/18 07:46:13;;;;;;;2.20;2.10;;;7.90;99.90;;;;;;5073659;28;20454;-78
2023/04/18 07:48:40;;;;;;;2.60;1.80;;;7.90;99.90;;;;;;5073599;28;20449;-77
2023/04/18 07:51:06;;;;;;;3.63;2.10;;;7.90;99.90;;;;;;5073501;28;20470;-77
2023/04/18 07:53:33;;;;;;;7.10;3.20;;;7.90;99.90;;;;;;5073543;28;20450;-77
2023/04/18 07:56:00;;;;;;;3.50;2.43;;;7.90;99.90;;;;;;5073469;28;20446;-78
2023/04/18 07:58:27;;;;;;;4.83;2.97;;;8.00;99.90;;;;;;5073168;28;20949;-77
2023/04/18 08:00:55;;;;;;;6.63;2.00;;;8.10;99.90;;;;;;5072844;28;20984;-78
2023/04/18 08:03:22;;;;;;;2.80;1.70;;;8.20;99.90;;;;;;5073315;28;20450;-77
2023/04/18 08:05:49;;;;;;;3.83;2.37;;;8.20;99.90;;;;;;5073405;28;20795;-77
2023/04/18 08:08:16;;;;;;;3.47;1.83;;;8.30;99.90;;;;;;5072602;28;20943;-77
2023/04/18 08:10:43;;;;;;;1.93;1.73;;;8.40;99.90;;;;;;5073234;28;20496;-77
2023/04/18 08:13:11;;;;;;;6.33;2.27;;;8.40;99.90;;;;;;5072989;28;20441;-77
2023/04/18 08:15:38;;;;;;;2.33;2.10;;;8.50;99.90;;;;;;5073299;28;20445;-77
2023/04/18 08:18:06;;;;;;;5.03;2.10;;;8.70;99.90;;;;;;5073280;28;20445;-77
2023/04/18 08:20:35;;;;;;;3.10;1.53;;;8.70;99.90;;;;;;5072930;28;21037;-77
2023/04/18 08:23:02;;;;;;;4.33;1.90;;;8.80;99.90;;;;;;5072928;28;21039;-77
2023/04/18 08:25:30;;;;;;;3.37;1.83;;;8.70;99.90;;;;;;5073188;28;20461;-77
2023/04/18 08:27:57;;;;;;;3.47;1.63;;;8.70;99.90;;;;;;5073192;28;20499;-77
2023/04/18 08:30:24;;;;;;;6.27;3.53;;;8.70;99.90;;;;;;5072809;28;20465;-78
2023/04/18 08:32:50;;;;;;;5.47;1.87;;;8.60;99.90;;;;;;5073150;28;20450;-77
2023/04/18 08:35:18;;;;;;;3.50;2.47;;;8.60;99.90;;;;;;5073128;28;20449;-77
2023/04/18 08:37:45;;;;;;;2.67;1.80;;;8.70;99.90;;;;;;5073098;28;20461;-77
2023/04/18 08:40:12;;;;;;;8.60;2.20;;;8.90;99.90;;;;;;5072736;28;21003;-77
2023/04/18 08:42:42;;;;;;;2.90;2.40;;;8.80;99.90;;;;;;5072829;28;20434;-78
2023/04/18 08:45:11;;;;;;;2.73;2.10;;;8.90;99.90;;;;;;5072983;28;20478;-78
2023/04/18 08:47:38;;;;;;;2.73;2.20;;;8.90;99.90;;;;;;5072931;28;20438;-77
2023/04/18 08:50:05;;;;;;;4.13;2.37;;;8.90;99.90;;;;;;5072928;28;20473;-77
2023/04/18 08:52:36;;;;;;;2.87;1.20;;;8.90;99.90;;;;;;5072973;28;20441;-77
2023/04/18 08:55:04;;;;;;;2.77;1.77;;;8.90;99.90;;;;;;5072971;28;20519;-77
2023/04/18 08:57:32;;;;;;;3.07;1.87;;;8.80;99.90;;;;;;5072941;28;20453;-77
2023/04/18 08:59:59;;;;;;;2.57;1.87;;;8.80;99.90;;;;;;5072477;28;20496;-78
2023/04/18 09:02:37;;;;;;;4.87;2.43;;;8.80;99.90;;;;;;5072918;28;20456;-77
2023/04/18 09:05:11;;;;;;;4.47;1.77;;;8.80;99.90;;;;;;5072754;28;20473;-77
2023/04/18 09:07:39;;;;;;;6.07;2.00;;;8.90;99.90;;;;;;5072596;28;20925;-78
2023/04/18 09:10:07;;;;;;;2.53;1.83;;;9.00;99.90;;;;;;5072417;28;20825;-78
2023/04/18 09:12:46;;;;;;;7.73;3.23;;;9.00;99.90;;;;;;5072451;28;20827;-78
2023/04/18 09:15:15;;;;;;;4.77;2.27;;;9.20;99.90;;;;;;5072741;28;20437;-78
2023/04/18 09:17:47;;;;;;;4.77;1.97;;;9.30;99.90;;;;;;5072722;28;20810;-79
2023/04/18 09:20:29;;;;;;;4.87;2.40;;;9.30;99.90;;;;;;5072667;28;20560;-78
2023/04/18 09:22:59;;;;;;;2.70;1.50;;;9.30;99.90;;;;;;5076327;28;20436;-78
2023/04/18 09:25:28;;;;;;;4.47;3.27;;;9.40;99.90;;;;;;5075883;28;20504;-78
2023/04/18 09:27:56;;;;;;;4.57;2.50;;;9.50;99.90;;;;;;5076230;28;20441;-78
2023/04/18 09:30:35;;;;;;;9.67;3.40;;;9.50;99.90;;;;;;5076065;28;20842;-78
2023/04/18 09:33:03;;;;;;;3.93;1.87;;;9.50;99.90;;;;;;5076150;28;20548;-78
2023/04/18 09:35:30;;;;;;;3.93;2.50;;;9.60;99.90;;;;;;5076080;28;20463;-78
2023/04/18 09:37:58;;;;;;;4.30;2.70;;;9.50;99.90;;;;;;5075734;28;20441;-78
2023/04/18 09:40:25;;;;;;;4.03;2.47;;;9.50;99.90;;;;;;5075922;28;20469;-78
2023/04/18 09:42:53;;;;;;;5.00;3.53;;;9.50;99.90;;;;;;5075969;28;20445;-78
2023/04/18 09:45:20;;;;;;;4.17;2.37;;;9.50;99.90;;;;;;5075786;28;20834;-79
2023/04/18 09:47:47;;;;;;;5.53;2.53;;;9.50;99.90;;;;;;5075872;28;20472;-78
2023/04/18 09:50:16;;;;;;;3.40;2.43;;;9.50;99.90;;;;;;5075638;28;20456;-78
2023/04/18 09:52:44;;;;;;;2.10;1.40;;;9.60;99.90;;;;;;5075768;28;20450;-78
2023/04/18 09:55:13;;;;;;;4.17;2.00;;;9.70;99.90;;;;;;5075684;28;20446;-78
2023/04/18 09:57:44;;;;;;;3.57;2.10;;;9.70;99.90;;;;;;5075599;28;20798;-79
2023/04/18 10:00:18;;;;;;;4.80;2.83;;;9.70;99.90;;;;;;5075318;28;20567;-78
2023/04/18 10:02:49;;;;;;;3.97;1.80;;;9.70;99.90;;;;;;5075655;28;20441;-78
2023/04/18 10:05:17;;;;;;;3.87;2.63;;;9.70;99.90;;;;;;5075511;28;20512;-78
2023/04/18 10:07:46;;;;;;;5.33;2.90;;;9.70;99.90;;;;;;5075196;28;20922;-78
2023/04/18 10:10:15;;;;;;;3.37;1.83;;;10.00;99.90;;;;;;5075393;28;20458;-80
2023/04/18 10:12:41;;;;;;;7.10;2.53;;;10.20;99.90;;;;;;5075391;28;20499;-79
2023/04/18 10:15:10;;;;;;;3.33;2.33;;;10.40;99.90;;;;;;5075097;28;20955;-79
2023/04/18 10:17:42;;;;;;;4.47;2.17;;;10.90;99.90;;;;;;5075367;28;20454;-79
2023/04/18 10:20:15;;;;;;;7.07;3.00;;;11.20;99.90;;;;;;5074960;28;20462;-79
2023/04/18 10:22:41;;;;;;;3.37;2.40;;;11.50;99.90;;;;;;5074913;28;20525;-78
2023/04/18 10:25:08;;;;;;;6.33;3.00;;;11.70;99.90;;;;;;5075091;28;20489;-79
2023/04/18 10:27:58;;;;;;;7.20;3.23;;;11.60;99.90;;;;;;5074795;28;20452;-79
2023/04/18 10:30:53;;;;;;;5.90;2.63;;;11.40;99.90;;;;;;5074720;28;20995;-78
2023/04/18 10:33:33;;;;;;;2.40;2.07;;;11.30;99.90;;;;;;5075355;28;20820;-78
2023/04/18 10:36:02;;;;;;;6.13;2.70;;;11.30;99.90;;;;;;5074960;28;20438;-78
2023/04/18 10:38:29;;;;;;;4.37;2.20;;;11.20;99.90;;;;;;5074871;28;20446;-78
2023/04/18 10:41:14;;;;;;;5.13;2.53;;;11.30;99.90;;;;;;5074673;28;20470;-79
2023/04/18 10:44:21;;;;;;;4.93;3.30;;;11.50;99.90;;;;;;5074888;28;20492;-79
2023/04/18 10:47:22;;;;;;;3.07;2.80;;;11.90;99.90;;;;;;5074842;28;20448;-79
2023/04/18 10:49:57;;;;;;;5.23;2.50;;;12.30;99.90;;;;;;5074672;28;20460;-79
2023/04/18 10:52:24;;;;;;;2.00;1.80;;;12.50;99.90;;;;;;5074891;28;20925;-78
2023/04/18 10:54:54;;;;;;;5.20;2.10;;;13.20;99.90;;;;;;5074534;28;20494;-79
2023/04/18 10:57:21;;;;;;;5.07;2.77;;;13.90;99.90;;;;;;5075580;28;20450;-78
2023/04/18 10:59:51;;;;;;;4.60;2.90;;;14.30;99.90;;;;;;5074195;28;20477;-78
2023/04/18 11:02:27;;;;;;;5.53;3.10;;;14.30;99.90;;;;;;5075231;28;20441;-79
2023/04/18 11:04:55;;;;;;;4.23;1.87;;;14.00;99.90;;;;;;5074453;28;20474;-78
2023/04/18 11:07:32;;;;;;;6.03;2.70;;;13.70;99.90;;;;;;5074303;28;20555;-79
2023/04/18 11:10:00;;;;;;;3.93;2.27;;;13.40;99.90;;;;;;5074294;28;20473;-79
2023/04/18 11:12:30;;;;;;;4.63;2.47;;;13.10;99.90;;;;;;5073889;28;20449;-78
2023/04/18 11:15:00;;;;;;;7.70;3.40;;;12.80;99.90;;;;;;5073930;28;20492;-80
2023/04/18 11:17:28;;;;;;;4.80;2.83;;;12.70;99.90;;;;;;5074091;28;20489;-80
2023/04/18 11:20:07;;;;;;;4.07;2.07;;;12.60;99.90;;;;;;5074154;28;20830;-79
2023/04/18 11:22:43;;;;;;;4.37;2.47;;;12.70;99.90;;;;;;5073717;28;20947;-80
2023/04/18 11:25:11;;;;;;;3.30;2.07;;;12.50;99.90;;;;;;5073642;28;20476;-80
2023/04/18 11:27:38;;;;;;;4.93;2.30;;;12.30;99.90;;;;;;5073608;28;20941;-80
2023/04/18 11:30:07;;;;;;;6.90;2.30;;;12.30;99.90;;;;;;5073836;28;20472;-80
2023/04/18 11:32:34;;;;;;;3.80;2.00;;;12.20;99.90;;;;;;5073831;28;20484;-80
2023/04/18 11:35:02;;;;;;;5.80;2.10;;;12.10;99.90;;;;;;5073807;28;20453;-80
2023/04/18 11:37:28;;;;;;;5.03;2.43;;;12.00;99.90;;;;;;5073549;28;20846;-83
2023/04/18 11:39:55;;;;;;;3.17;2.13;;;12.00;99.90;;;;;;5073797;28;20488;-80
2023/04/18 11:42:26;;;;;;;5.90;2.37;;;12.00;99.90;;;;;;5073694;28;20461;-81
2023/04/18 11:44:53;;;;;;;3.23;1.90;;;12.10;99.90;;;;;;5073028;28;20473;-80
2023/04/18 11:47:25;;;;;;;2.73;1.53;;;12.10;99.90;;;;;;5073338;28;20937;-81
2023/04/18 11:49:56;;;;;;;2.83;1.90;;;12.20;99.90;;;;;;5073240;28;21017;-81
2023/04/18 11:52:23;;;;;;;2.40;2.30;;;12.30;99.90;;;;;;5073245;28;20937;-81
2023/04/18 11:54:50;;;;;;;4.70;1.70;;;12.40;99.90;;;;;;5073560;28;20446;-81
2023/04/18 11:57:22;;;;;;;2.70;2.50;;;12.50;99.90;;;;;;5073503;28;20461;-81
2023/04/18 11:59:53;;;;;;;5.00;3.10;;;12.60;99.90;;;;;;5073153;28;20488;-80
2023/04/18 12:02:21;;;;;;;2.57;2.27;;;12.60;99.90;;;;;;5073538;28;20444;-81
2023/04/18 12:04:55;;;;;;;3.77;2.20;;;12.60;99.90;;;;;;5073318;28;20441;-81
2023/04/18 12:07:31;;;;;;;1.77;1.67;;;12.50;99.90;;;;;;5073402;28;20546;-80
2023/04/18 12:09:58;;;;;;;6.13;1.87;;;12.40;99.90;;;;;;5073337;28;20465;-81
2023/04/18 12:12:25;;;;;;;2.03;1.70;;;12.30;99.90;;;;;;5073319;28;20461;-81
2023/04/18 12:14:58;;;;;;;3.17;1.57;;;12.30;99.90;;;;;;5073261;28;20455;-81
2023/04/18 12:17:25;;;;;;;4.00;1.60;;;12.40;99.90;;;;;;5073339;28;20434;-80
2023/04/18 12:19:54;;;;;;;3.80;1.67;;;12.40;99.90;;;;;;5073215;28;20497;-81
2023/04/18 12:22:40;;;;;;;2.03;1.23;;;12.40;99.90;;;;;;5073215;28;20454;-81
2023/04/18 12:25:22;;;;;;;3.67;1.90;;;12.50;99.90;;;;;;5073207;28;20483;-81
2023/04/18 12:27:50;;;;;;;5.77;2.40;;;12.80;99.90;;;;;;5072964;28;20921;-81
2023/04/18 12:30:20;;;;;;;2.87;2.20;;;13.00;99.90;;;;;;5073107;28;20469;-81
2023/04/18 12:32:47;;;;;;;2.00;1.37;;;13.30;99.90;;;;;;5073206;28;20472;-82
2023/04/18 12:35:16;;;;;;;3.20;1.50;;;13.50;99.90;;;;;;5073160;28;20445;-81
2023/04/18 12:37:43;;;;;;;3.07;1.63;;;13.50;99.90;;;;;;5072759;28;20933;-81
2023/04/18 12:40:12;;;;;;;1.83;1.60;;;13.30;99.90;;;;;;5073042;28;20472;-80
2023/04/18 12:42:39;;;;;;;4.53;1.50;;;13.10;99.90;;;;;;5073499;28;20453;-81
2023/04/18 12:45:07;;;;;;;3.73;2.07;;;13.00;99.90;;;;;;5072960;28;20544;-82
2023/04/18 12:47:34;;;;;;;2.20;2.00;;;13.00;99.90;;;;;;5073049;28;20492;-82
2023/04/18 12:50:01;;;;;;;6.67;2.60;;;12.90;99.90;;;;;;5072919;28;20965;-82
2023/04/18 12:52:30;;;;;;;3.33;1.50;;;13.00;99.90;;;;;;5072637;28;20954;-82
2023/04/18 12:54:57;;;;;;;1.57;1.17;;;13.10;99.90;;;;;;5074131;28;20460;-81
2023/04/18 12:57:24;;;;;;;1.33;1.23;;;13.20;99.90;;;;;;5076815;28;20821;-82
2023/04/18 12:59:50;;;;;;;3.87;1.97;;;13.20;99.90;;;;;;5076218;28;21007;-82